sensor_id;sensor_type;location;lat;lon;timestamp;pressure;altitude;pressure_sealevel;temperature;humidity
79686;BME280;69153;47.918;11.428;2023-07-13T00:01:16;95153.56;;;20.65;67.22
79686;BME280;69153;47.918;11.428;2023-07-13T00:03:42;95149.44;;;20.70;67.15
79686;BME280;69153;47.918;11.428;2023-07-13T00:06:08;95154.88;;;20.81;66.45
79686;BME280;69153;47.918;11.428;2023-07-13T00:08:34;95143.19;;;21.01;65.88
79686;BME280;69153;47.918;11.428;2023-07-13T00:11:02;95137.81;;;21.12;65.74
79686;BME280;69153;47.918;11.428;2023-07-13T00:13:29;95128.31;;;21.22;64.98
79686;BME280;69153;47.918;11.428;2023-07-13T00:15:57;95124.66;;;21.31;64.47
79686;BME280;69153;47.918;11.428;2023-07-13T00:18:23;95125.16;;;21.35;64.49
79686;BME280;69153;47.918;11.428;2023-07-13T00:20:49;95124.19;;;21.38;64.11
79686;BME280;69153;47.918;11.428;2023-07-13T00:23:15;95121.97;;;21.36;63.53
79686;BME280;69153;47.918;11.428;2023-07-13T00:25:41;95137.16;;;21.34;64.50
79686;BME280;69153;47.918;11.428;2023-07-13T00:28:06;95142.06;;;21.35;64.50
79686;BME280;69153;47.918;11.428;2023-07-13T00:30:32;95147.94;;;21.45;64.26
79686;BME280;69153;47.918;11.428;2023-07-13T00:32:57;95153.34;;;21.56;64.08
79686;BME280;69153;47.918;11.428;2023-07-13T00:35:23;95147.22;;;21.56;63.84
79686;BME280;69153;47.918;11.428;2023-07-13T00:37:48;95155.56;;;21.58;63.78
79686;BME280;69153;47.918;11.428;2023-07-13T00:40:14;95161.19;;;21.60;63.12
79686;BME280;69153;47.918;11.428;2023-07-13T00:42:41;95156.81;;;21.62;62.93
79686;BME280;69153;47.918;11.428;2023-07-13T00:47:41;95160.44;;;21.37;63.42
79686;BME280;69153;47.918;11.428;2023-07-13T00:50:10;95155.31;;;21.39;63.26
79686;BME280;69153;47.918;11.428;2023-07-13T00:52:42;95156.53;;;21.44;63.05
79686;BME280;69153;47.918;11.428;2023-07-13T00:55:10;95147.97;;;21.51;63.10
79686;BME280;69153;47.918;11.428;2023-07-13T00:57:37;95144.31;;;21.54;62.74
79686;BME280;69153;47.918;11.428;2023-07-13T01:00:05;95133.00;;;21.55;62.05
79686;BME280;69153;47.918;11.428;2023-07-13T01:02:39;95130.31;;;21.55;62.35
79686;BME280;69153;47.918;11.428;2023-07-13T01:05:16;95133.75;;;21.56;62.69
79686;BME280;69153;47.918;11.428;2023-07-13T01:07:44;95121.50;;;21.55;62.91
79686;BME280;69153;47.918;11.428;2023-07-13T01:10:11;95135.00;;;21.55;62.42
79686;BME280;69153;47.918;11.428;2023-07-13T01:12:37;95125.66;;;21.56;61.85
79686;BME280;69153;47.918;11.428;2023-07-13T01:15:03;95125.66;;;21.50;61.82
79686;BME280;69153;47.918;11.428;2023-07-13T01:17:33;95121.25;;;21.47;62.09
79686;BME280;69153;47.918;11.428;2023-07-13T01:19:59;95105.31;;;21.44;62.31
79686;BME280;69153;47.918;11.428;2023-07-13T01:22:26;95109.22;;;21.48;62.05
79686;BME280;69153;47.918;11.428;2023-07-13T01:24:53;95103.59;;;21.52;62.33
79686;BME280;69153;47.918;11.428;2023-07-13T01:27:24;95100.91;;;21.52;62.39
79686;BME280;69153;47.918;11.428;2023-07-13T01:29:53;95105.56;;;21.51;62.47
79686;BME280;69153;47.918;11.428;2023-07-13T01:32:21;95109.00;;;21.52;62.62
79686;BME280;69153;47.918;11.428;2023-07-13T01:34:50;95097.97;;;21.50;62.51
79686;BME280;69153;47.918;11.428;2023-07-13T01:37:17;95090.13;;;21.46;62.76
79686;BME280;69153;47.918;11.428;2023-07-13T01:39:42;95095.28;;;21.38;62.53
79686;BME280;69153;47.918;11.428;2023-07-13T01:42:08;95091.53;;;21.14;63.20
79686;BME280;69153;47.918;11.428;2023-07-13T01:44:34;95078.28;;;21.04;63.45
79686;BME280;69153;47.918;11.428;2023-07-13T01:47:00;95079.28;;;21.01;63.89
79686;BME280;69153;47.918;11.428;2023-07-13T01:49:26;95086.63;;;21.07;63.39
79686;BME280;69153;47.918;11.428;2023-07-13T01:51:51;95090.03;;;21.07;63.73
79686;BME280;69153;47.918;11.428;2023-07-13T01:54:17;95101.59;;;21.13;63.37
79686;BME280;69153;47.918;11.428;2023-07-13T01:56:42;95102.78;;;21.18;63.28
79686;BME280;69153;47.918;11.428;2023-07-13T01:59:08;95114.59;;;21.20;63.68
79686;BME280;69153;47.918;11.428;2023-07-13T02:01:34;95117.53;;;21.22;63.00
79686;BME280;69153;47.918;11.428;2023-07-13T02:03:59;95128.31;;;21.22;63.42
79686;BME280;69153;47.918;11.428;2023-07-13T02:06:24;95140.09;;;21.25;63.57
79686;BME280;69153;47.918;11.428;2023-07-13T02:08:50;95132.00;;;21.25;63.60
79686;BME280;69153;47.918;11.428;2023-07-13T02:11:15;95143.53;;;21.25;63.48
79686;BME280;69153;47.918;11.428;2023-07-13T02:13:41;95148.91;;;21.25;63.67
79686;BME280;69153;47.918;11.428;2023-07-13T02:16:06;95155.53;;;21.30;63.88
79686;BME280;69153;47.918;11.428;2023-07-13T02:18:32;95163.38;;;21.33;63.56
79686;BME280;69153;47.918;11.428;2023-07-13T02:20:58;95161.41;;;21.34;63.53
79686;BME280;69153;47.918;11.428;2023-07-13T02:23:23;95165.34;;;21.33;63.29
79686;BME280;69153;47.918;11.428;2023-07-13T02:25:48;95160.69;;;21.28;63.34
79686;BME280;69153;47.918;11.428;2023-07-13T02:28:14;95161.53;;;20.97;64.40
79686;BME280;69153;47.918;11.428;2023-07-13T02:30:40;95163.84;;;20.61;65.69
79686;BME280;69153;47.918;11.428;2023-07-13T02:33:05;95165.56;;;20.64;66.02
79686;BME280;69153;47.918;11.428;2023-07-13T02:35:31;95172.72;;;20.79;65.45
79686;BME280;69153;47.918;11.428;2023-07-13T02:37:56;95172.28;;;20.86;65.01
79686;BME280;69153;47.918;11.428;2023-07-13T02:40:22;95177.97;;;20.99;64.44
79686;BME280;69153;47.918;11.428;2023-07-13T02:42:48;95174.97;;;20.86;64.33
79686;BME280;69153;47.918;11.428;2023-07-13T02:45:13;95175.47;;;20.90;64.57
79686;BME280;69153;47.918;11.428;2023-07-13T02:47:41;95183.59;;;21.01;64.48
79686;BME280;69153;47.918;11.428;2023-07-13T02:50:08;95188.03;;;21.10;63.97
79686;BME280;69153;47.918;11.428;2023-07-13T02:52:33;95189.50;;;21.16;63.72
79686;BME280;69153;47.918;11.428;2023-07-13T02:54:59;95185.41;;;21.21;63.29
79686;BME280;69153;47.918;11.428;2023-07-13T02:57:24;95188.34;;;21.23;63.72
79686;BME280;69153;47.918;11.428;2023-07-13T02:59:50;95185.66;;;21.23;63.53
79686;BME280;69153;47.918;11.428;2023-07-13T03:02:16;95182.97;;;21.23;62.95
79686;BME280;69153;47.918;11.428;2023-07-13T03:04:41;95188.09;;;21.21;63.75
79686;BME280;69153;47.918;11.428;2023-07-13T03:07:07;95187.84;;;21.19;63.64
79686;BME280;69153;47.918;11.428;2023-07-13T03:09:34;95178.31;;;21.23;63.85
79686;BME280;69153;47.918;11.428;2023-07-13T03:12:00;95185.91;;;21.30;63.79
79686;BME280;69153;47.918;11.428;2023-07-13T03:14:26;95183.72;;;21.29;63.80
79686;BME280;69153;47.918;11.428;2023-07-13T03:16:52;95180.50;;;21.25;63.64
79686;BME280;69153;47.918;11.428;2023-07-13T03:19:18;95187.84;;;21.19;64.51
79686;BME280;69153;47.918;11.428;2023-07-13T03:21:44;95183.88;;;21.14;64.16
79686;BME280;69153;47.918;11.428;2023-07-13T03:24:10;95197.38;;;21.14;64.28
79686;BME280;69153;47.918;11.428;2023-07-13T03:26:35;95190.50;;;21.13;64.18
79686;BME280;69153;47.918;11.428;2023-07-13T03:29:01;95197.59;;;21.16;64.29
79686;BME280;69153;47.918;11.428;2023-07-13T03:31:28;95205.00;;;21.21;64.12
79686;BME280;69153;47.918;11.428;2023-07-13T03:33:55;95211.38;;;21.24;64.02
79686;BME280;69153;47.918;11.428;2023-07-13T03:36:24;95219.94;;;21.22;63.81
79686;BME280;69153;47.918;11.428;2023-07-13T03:38:54;95222.09;;;21.13;63.19
79686;BME280;69153;47.918;11.428;2023-07-13T03:41:21;95215.88;;;20.90;62.74
79686;BME280;69153;47.918;11.428;2023-07-13T03:43:47;95219.50;;;20.76;62.65
79686;BME280;69153;47.918;11.428;2023-07-13T03:46:14;95210.94;;;20.77;62.05
79686;BME280;69153;47.918;11.428;2023-07-13T03:48:41;95221.44;;;20.81;61.98
79686;BME280;69153;47.918;11.428;2023-07-13T03:51:08;95212.94;;;20.88;61.62
79686;BME280;69153;47.918;11.428;2023-07-13T03:53:38;95220.28;;;20.87;61.74
79686;BME280;69153;47.918;11.428;2023-07-13T03:56:04;95217.28;;;20.80;61.72
79686;BME280;69153;47.918;11.428;2023-07-13T03:58:34;95226.41;;;20.88;61.06
79686;BME280;69153;47.918;11.428;2023-07-13T04:01:02;95229.56;;;20.86;61.04
79686;BME280;69153;47.918;11.428;2023-07-13T04:03:29;95225.19;;;20.89;60.87
79686;BME280;69153;47.918;11.428;2023-07-13T04:05:55;95230.81;;;20.91;61.07
79686;BME280;69153;47.918;11.428;2023-07-13T04:08:26;95227.88;;;20.94;60.73
79686;BME280;69153;47.918;11.428;2023-07-13T04:10:52;95228.38;;;20.93;60.90
79686;BME280;69153;47.918;11.428;2023-07-13T04:13:17;95227.34;;;20.42;63.10
79686;BME280;69153;47.918;11.428;2023-07-13T04:15:43;95236.16;;;20.37;63.82
79686;BME280;69153;47.918;11.428;2023-07-13T04:18:08;95232.78;;;20.48;63.33
79686;BME280;69153;47.918;11.428;2023-07-13T04:20:34;95243.09;;;20.55;63.53
79686;BME280;69153;47.918;11.428;2023-07-13T04:23:00;95233.59;;;20.65;62.98
79686;BME280;69153;47.918;11.428;2023-07-13T04:25:26;95250.06;;;20.73;62.25
79686;BME280;69153;47.918;11.428;2023-07-13T04:27:52;95241.78;;;20.82;61.32
79686;BME280;69153;47.918;11.428;2023-07-13T04:30:18;95251.56;;;20.79;61.86
79686;BME280;69153;47.918;11.428;2023-07-13T04:32:43;95258.16;;;20.78;61.73
79686;BME280;69153;47.918;11.428;2023-07-13T04:35:09;95254.50;;;20.81;61.20
79686;BME280;69153;47.918;11.428;2023-07-13T04:37:34;95253.03;;;20.80;61.71
79686;BME280;69153;47.918;11.428;2023-07-13T04:40:01;95251.72;;;20.64;62.15
79686;BME280;69153;47.918;11.428;2023-07-13T04:42:26;95254.66;;;20.61;62.47
79686;BME280;69153;47.918;11.428;2023-07-13T04:44:52;95255.88;;;20.65;62.95
79686;BME280;69153;47.918;11.428;2023-07-13T04:47:18;95260.28;;;20.63;62.25
79686;BME280;69153;47.918;11.428;2023-07-13T04:49:44;95267.38;;;20.66;61.89
79686;BME280;69153;47.918;11.428;2023-07-13T04:52:11;95266.47;;;20.75;61.51
79686;BME280;69153;47.918;11.428;2023-07-13T04:54:37;95262.13;;;20.83;60.98
79686;BME280;69153;47.918;11.428;2023-07-13T04:57:03;95252.06;;;20.83;61.81
79686;BME280;69153;47.918;11.428;2023-07-13T04:59:32;95252.44;;;20.65;61.73
79686;BME280;69153;47.918;11.428;2023-07-13T05:01:57;95263.97;;;20.65;61.79
79686;BME280;69153;47.918;11.428;2023-07-13T05:04:23;95257.75;;;20.48;62.67
79686;BME280;69153;47.918;11.428;2023-07-13T05:06:48;95261.34;;;20.40;63.10
79686;BME280;69153;47.918;11.428;2023-07-13T05:09:14;95257.97;;;20.45;63.06
79686;BME280;69153;47.918;11.428;2023-07-13T05:11:39;95255.31;;;20.50;63.08
79686;BME280;69153;47.918;11.428;2023-07-13T05:14:04;95262.72;;;20.61;62.63
79686;BME280;69153;47.918;11.428;2023-07-13T05:16:30;95268.81;;;20.56;62.92
79686;BME280;69153;47.918;11.428;2023-07-13T05:18:57;95273.97;;;20.59;62.41
79686;BME280;69153;47.918;11.428;2023-07-13T05:21:22;95276.19;;;20.61;62.94
79686;BME280;69153;47.918;11.428;2023-07-13T05:23:48;95279.34;;;20.59;62.76
79686;BME280;69153;47.918;11.428;2023-07-13T05:26:13;95287.69;;;20.61;62.89
79686;BME280;69153;47.918;11.428;2023-07-13T05:28:39;95286.72;;;20.64;62.85
79686;BME280;69153;47.918;11.428;2023-07-13T05:31:07;95282.13;;;20.71;62.81
79686;BME280;69153;47.918;11.428;2023-07-13T05:33:33;95278.97;;;20.78;63.30
79686;BME280;69153;47.918;11.428;2023-07-13T05:35:58;95276.78;;;20.82;62.81
79686;BME280;69153;47.918;11.428;2023-07-13T05:38:25;95268.19;;;20.72;62.94
79686;BME280;69153;47.918;11.428;2023-07-13T05:40:55;95261.25;;;20.65;63.50
79686;BME280;69153;47.918;11.428;2023-07-13T05:43:22;95270.81;;;20.66;63.16
79686;BME280;69153;47.918;11.428;2023-07-13T05:45:47;95278.13;;;20.60;63.42
79686;BME280;69153;47.918;11.428;2023-07-13T05:48:13;95272.09;;;20.71;63.28
79686;BME280;69153;47.918;11.428;2023-07-13T05:50:38;95271.13;;;20.74;63.46
79686;BME280;69153;47.918;11.428;2023-07-13T05:53:04;95274.09;;;20.82;63.28
79686;BME280;69153;47.918;11.428;2023-07-13T05:55:30;95278.31;;;20.88;62.79
79686;BME280;69153;47.918;11.428;2023-07-13T05:57:56;95279.31;;;20.96;63.50
79686;BME280;69153;47.918;11.428;2023-07-13T06:00:24;95288.94;;;21.09;62.62
79686;BME280;69153;47.918;11.428;2023-07-13T06:02:50;95287.38;;;20.91;63.62
79686;BME280;69153;47.918;11.428;2023-07-13T06:05:15;95289.84;;;20.94;63.53
79686;BME280;69153;47.918;11.428;2023-07-13T06:07:41;95294.56;;;21.05;63.51
79686;BME280;69153;47.918;11.428;2023-07-13T06:10:07;95301.66;;;21.02;62.91
79686;BME280;69153;47.918;11.428;2023-07-13T06:12:33;95311.38;;;20.89;63.93
79686;BME280;69153;47.918;11.428;2023-07-13T06:14:58;95306.16;;;20.80;63.82
79686;BME280;69153;47.918;11.428;2023-07-13T06:17:23;95318.88;;;20.74;64.42
79686;BME280;69153;47.918;11.428;2023-07-13T06:19:49;95320.25;;;20.63;64.70
79686;BME280;69153;47.918;11.428;2023-07-13T06:22:14;95312.69;;;20.67;65.05
79686;BME280;69153;47.918;11.428;2023-07-13T06:24:40;95318.19;;;20.84;64.54
79686;BME280;69153;47.918;11.428;2023-07-13T06:27:05;95325.38;;;20.98;64.28
79686;BME280;69153;47.918;11.428;2023-07-13T06:29:31;95323.75;;;21.12;64.13
79686;BME280;69153;47.918;11.428;2023-07-13T06:31:56;95329.97;;;21.24;63.72
79686;BME280;69153;47.918;11.428;2023-07-13T06:34:22;95330.50;;;21.33;63.47
79686;BME280;69153;47.918;11.428;2023-07-13T06:36:47;95330.53;;;21.39;62.66
79686;BME280;69153;47.918;11.428;2023-07-13T06:39:13;95326.41;;;21.49;62.92
79686;BME280;69153;47.918;11.428;2023-07-13T06:41:38;95335.75;;;21.54;62.71
79686;BME280;69153;47.918;11.428;2023-07-13T06:44:04;95327.16;;;21.61;62.67
79686;BME280;69153;47.918;11.428;2023-07-13T06:46:30;95330.78;;;21.41;62.46
79686;BME280;69153;47.918;11.428;2023-07-13T06:48:56;95334.44;;;21.44;63.65
79686;BME280;69153;47.918;11.428;2023-07-13T06:51:21;95330.56;;;21.50;62.73
79686;BME280;69153;47.918;11.428;2023-07-13T06:53:47;95332.31;;;21.59;60.72
79686;BME280;69153;47.918;11.428;2023-07-13T06:56:12;95340.91;;;21.63;60.13
79686;BME280;69153;47.918;11.428;2023-07-13T06:58:38;95329.66;;;21.70;60.16
79686;BME280;69153;47.918;11.428;2023-07-13T07:01:05;95330.91;;;21.74;60.62
79686;BME280;69153;47.918;11.428;2023-07-13T07:03:30;95332.84;;;21.74;59.84
79686;BME280;69153;47.918;11.428;2023-07-13T07:08:39;95336.81;;;21.79;59.72
79686;BME280;69153;47.918;11.428;2023-07-13T07:11:05;95335.56;;;21.85;59.16
79686;BME280;69153;47.918;11.428;2023-07-13T07:13:31;95328.47;;;21.88;60.15
79686;BME280;69153;47.918;11.428;2023-07-13T07:15:56;95331.69;;;21.92;58.63
79686;BME280;69153;47.918;11.428;2023-07-13T07:18:21;95330.69;;;21.89;58.48
79686;BME280;69153;47.918;11.428;2023-07-13T07:20:48;95332.16;;;21.96;59.05
79686;BME280;69153;47.918;11.428;2023-07-13T07:23:14;95336.09;;;21.89;58.98
79686;BME280;69153;47.918;11.428;2023-07-13T07:25:39;95343.69;;;21.96;58.18
79686;BME280;69153;47.918;11.428;2023-07-13T07:28:08;95352.53;;;21.91;57.67
79686;BME280;69153;47.918;11.428;2023-07-13T07:30:33;95354.25;;;21.89;58.33
79686;BME280;69153;47.918;11.428;2023-07-13T07:32:58;95350.06;;;21.88;57.88
79686;BME280;69153;47.918;11.428;2023-07-13T07:35:24;95358.91;;;21.88;57.80
79686;BME280;69153;47.918;11.428;2023-07-13T07:37:49;95354.97;;;21.95;57.91
79686;BME280;69153;47.918;11.428;2023-07-13T07:40:15;95361.84;;;21.96;58.48
79686;BME280;69153;47.918;11.428;2023-07-13T07:42:40;95368.53;;;22.00;57.07
79686;BME280;69153;47.918;11.428;2023-07-13T07:45:06;95367.50;;;21.92;57.20
79686;BME280;69153;47.918;11.428;2023-07-13T07:47:32;95367.22;;;21.85;56.59
79686;BME280;69153;47.918;11.428;2023-07-13T07:49:57;95373.06;;;21.72;56.59
79686;BME280;69153;47.918;11.428;2023-07-13T07:52:23;95380.16;;;21.69;57.08
79686;BME280;69153;47.918;11.428;2023-07-13T07:54:48;95381.31;;;21.57;55.11
79686;BME280;69153;47.918;11.428;2023-07-13T07:57:14;95377.59;;;21.44;55.17
79686;BME280;69153;47.918;11.428;2023-07-13T07:59:39;95389.25;;;21.29;56.43
79686;BME280;69153;47.918;11.428;2023-07-13T08:02:05;95387.81;;;21.28;57.32
79686;BME280;69153;47.918;11.428;2023-07-13T08:04:30;95395.91;;;21.34;56.96
79686;BME280;69153;47.918;11.428;2023-07-13T08:06:56;95397.66;;;21.37;57.67
79686;BME280;69153;47.918;11.428;2023-07-13T08:09:22;95404.97;;;21.31;57.11
79686;BME280;69153;47.918;11.428;2023-07-13T08:11:48;95402.72;;;21.24;56.04
79686;BME280;69153;47.918;11.428;2023-07-13T08:14:13;95407.16;;;21.27;56.48
79686;BME280;69153;47.918;11.428;2023-07-13T08:16:39;95415.09;;;21.10;55.87
79686;BME280;69153;47.918;11.428;2023-07-13T08:19:05;95407.50;;;21.09;55.38
79686;BME280;69153;47.918;11.428;2023-07-13T08:21:31;95404.31;;;21.10;54.61
79686;BME280;69153;47.918;11.428;2023-07-13T08:23:57;95409.38;;;20.97;53.48
79686;BME280;69153;47.918;11.428;2023-07-13T08:26:22;95412.41;;;20.79;53.08
79686;BME280;69153;47.918;11.428;2023-07-13T08:28:47;95413.78;;;20.68;53.09
79686;BME280;69153;47.918;11.428;2023-07-13T08:31:13;95414.28;;;20.67;52.59
79686;BME280;69153;47.918;11.428;2023-07-13T08:33:39;95411.81;;;20.63;52.76
79686;BME280;69153;47.918;11.428;2023-07-13T08:36:06;95422.81;;;20.65;52.42
79686;BME280;69153;47.918;11.428;2023-07-13T08:38:32;95428.47;;;20.67;54.07
79686;BME280;69153;47.918;11.428;2023-07-13T08:40:58;95431.22;;;20.73;54.48
79686;BME280;69153;47.918;11.428;2023-07-13T08:43:28;95424.31;;;20.66;54.91
79686;BME280;69153;47.918;11.428;2023-07-13T08:46:34;95423.34;;;20.69;54.21
79686;BME280;69153;47.918;11.428;2023-07-13T08:49:15;95427.22;;;20.63;54.62
79686;BME280;69153;47.918;11.428;2023-07-13T08:51:45;95426.00;;;20.64;55.00
79686;BME280;69153;47.918;11.428;2023-07-13T08:54:24;95418.66;;;20.64;54.52
79686;BME280;69153;47.918;11.428;2023-07-13T08:56:53;95418.41;;;20.62;54.28
79686;BME280;69153;47.918;11.428;2023-07-13T08:59:26;95430.97;;;20.71;54.43
79686;BME280;69153;47.918;11.428;2023-07-13T09:02:05;95424.56;;;20.68;54.34
79686;BME280;69153;47.918;11.428;2023-07-13T09:04:52;95415.97;;;20.64;55.32
79686;BME280;69153;47.918;11.428;2023-07-13T09:07:34;95429.00;;;20.72;55.50
79686;BME280;69153;47.918;11.428;2023-07-13T09:10:14;95429.75;;;20.72;55.49
79686;BME280;69153;47.918;11.428;2023-07-13T09:15:32;95428.59;;;20.53;55.02
79686;BME280;69153;47.918;11.428;2023-07-13T09:18:08;95427.34;;;20.48;54.54
79686;BME280;69153;47.918;11.428;2023-07-13T09:23:16;95425.69;;;20.56;55.25
79686;BME280;69153;47.918;11.428;2023-07-13T09:25:48;95434.97;;;20.55;55.32
79686;BME280;69153;47.918;11.428;2023-07-13T09:28:22;95441.91;;;20.62;54.88
79686;BME280;69153;47.918;11.428;2023-07-13T09:31:14;95439.97;;;20.68;55.44
79686;BME280;69153;47.918;11.428;2023-07-13T09:33:40;95438.78;;;20.69;54.89
79686;BME280;69153;47.918;11.428;2023-07-13T09:36:19;95436.13;;;20.75;54.61
79686;BME280;69153;47.918;11.428;2023-07-13T09:38:45;95443.69;;;20.71;54.72
79686;BME280;69153;47.918;11.428;2023-07-13T09:46:55;95427.44;;;20.91;52.27
79686;BME280;69153;47.918;11.428;2023-07-13T09:49:29;95431.94;;;20.99;53.52
79686;BME280;69153;47.918;11.428;2023-07-13T09:52:11;95434.84;;;20.96;54.52
79686;BME280;69153;47.918;11.428;2023-07-13T09:54:38;95443.59;;;20.91;56.33
79686;BME280;69153;47.918;11.428;2023-07-13T09:57:17;95442.09;;;20.84;56.69
79686;BME280;69153;47.918;11.428;2023-07-13T09:59:46;95441.09;;;20.82;56.82
79686;BME280;69153;47.918;11.428;2023-07-13T10:02:25;95443.84;;;20.36;57.57
79686;BME280;69153;47.918;11.428;2023-07-13T10:05:02;95449.75;;;20.65;57.75
79686;BME280;69153;47.918;11.428;2023-07-13T10:07:30;95459.19;;;20.81;55.95
79686;BME280;69153;47.918;11.428;2023-07-13T10:09:58;95458.47;;;20.81;56.58
79686;BME280;69153;47.918;11.428;2023-07-13T10:12:26;95457.06;;;20.59;57.20
79686;BME280;69153;47.918;11.428;2023-07-13T10:14:56;95445.31;;;20.88;57.97
79686;BME280;69153;47.918;11.428;2023-07-13T10:17:30;95445.91;;;20.72;56.31
79686;BME280;69153;47.918;11.428;2023-07-13T10:19:59;95451.19;;;20.61;56.88
79686;BME280;69153;47.918;11.428;2023-07-13T10:22:39;95453.50;;;20.74;56.90
79686;BME280;69153;47.918;11.428;2023-07-13T10:25:35;95466.88;;;20.88;56.04
79686;BME280;69153;47.918;11.428;2023-07-13T10:30:47;95473.19;;;21.17;55.88
79686;BME280;69153;47.918;11.428;2023-07-13T10:33:14;95470.22;;;21.41;54.84
79686;BME280;69153;47.918;11.428;2023-07-13T10:35:43;95472.69;;;21.44;55.55
79686;BME280;69153;47.918;11.428;2023-07-13T10:38:14;95473.25;;;21.54;56.21
79686;BME280;69153;47.918;11.428;2023-07-13T10:41:17;95454.88;;;21.21;56.70
79686;BME280;69153;47.918;11.428;2023-07-13T10:43:47;95455.53;;;21.10;56.60
79686;BME280;69153;47.918;11.428;2023-07-13T10:46:19;95460.22;;;21.15;55.08
79686;BME280;69153;47.918;11.428;2023-07-13T10:48:57;95453.94;;;21.29;55.67
79686;BME280;69153;47.918;11.428;2023-07-13T10:51:25;95455.28;;;21.45;53.71
79686;BME280;69153;47.918;11.428;2023-07-13T10:56:35;95457.00;;;21.91;51.95
79686;BME280;69153;47.918;11.428;2023-07-13T10:59:14;95460.34;;;22.17;50.61
79686;BME280;69153;47.918;11.428;2023-07-13T11:01:54;95464.69;;;22.91;47.96
79686;BME280;69153;47.918;11.428;2023-07-13T11:04:22;95474.75;;;23.12;47.19
79686;BME280;69153;47.918;11.428;2023-07-13T11:06:56;95465.16;;;23.17;45.14
79686;BME280;69153;47.918;11.428;2023-07-13T11:11:47;95466.63;;;23.51;46.73
79686;BME280;69153;47.918;11.428;2023-07-13T11:14:42;95467.53;;;23.88;44.67
79686;BME280;69153;47.918;11.428;2023-07-13T11:22:53;95455.44;;;23.94;44.12
79686;BME280;69153;47.918;11.428;2023-07-13T11:25:34;95452.19;;;24.07;44.25
79686;BME280;69153;47.918;11.428;2023-07-13T11:28:17;95449.06;;;23.97;45.64
79686;BME280;69153;47.918;11.428;2023-07-13T11:33:24;95448.31;;;23.97;41.23
79686;BME280;69153;47.918;11.428;2023-07-13T11:35:58;95447.03;;;24.03;41.15
79686;BME280;69153;47.918;11.428;2023-07-13T11:38:40;95440.19;;;23.97;41.12
79686;BME280;69153;47.918;11.428;2023-07-13T11:41:19;95452.25;;;23.96;41.99
79686;BME280;69153;47.918;11.428;2023-07-13T11:43:53;95440.72;;;23.84;42.45
79686;BME280;69153;47.918;11.428;2023-07-13T11:46:27;95431.97;;;23.44;42.12
79686;BME280;69153;47.918;11.428;2023-07-13T11:48:53;95436.19;;;22.95;42.91
79686;BME280;69153;47.918;11.428;2023-07-13T11:51:29;95420.94;;;22.92;43.44
79686;BME280;69153;47.918;11.428;2023-07-13T11:54:01;95416.50;;;23.00;43.20
79686;BME280;69153;47.918;11.428;2023-07-13T11:56:28;95416.75;;;23.19;44.87
79686;BME280;69153;47.918;11.428;2023-07-13T11:58:57;95422.56;;;23.68;42.55
79686;BME280;69153;47.918;11.428;2023-07-13T12:01:31;95419.53;;;23.94;41.41
79686;BME280;69153;47.918;11.428;2023-07-13T12:04:02;95423.66;;;24.11;42.76
79686;BME280;69153;47.918;11.428;2023-07-13T12:06:33;95421.25;;;24.49;41.32
79686;BME280;69153;47.918;11.428;2023-07-13T12:09:09;95417.47;;;24.63;41.04
79686;BME280;69153;47.918;11.428;2023-07-13T12:11:40;95409.00;;;24.72;41.79
79686;BME280;69153;47.918;11.428;2023-07-13T12:14:13;95412.19;;;23.77;42.54
79686;BME280;69153;47.918;11.428;2023-07-13T12:16:41;95403.38;;;23.71;43.28
79686;BME280;69153;47.918;11.428;2023-07-13T12:19:18;95412.78;;;23.54;40.75
79686;BME280;69153;47.918;11.428;2023-07-13T12:21:46;95412.25;;;23.72;42.97
79686;BME280;69153;47.918;11.428;2023-07-13T12:24:17;95409.81;;;23.51;42.93
79686;BME280;69153;47.918;11.428;2023-07-13T12:26:43;95408.94;;;23.96;41.13
79686;BME280;69153;47.918;11.428;2023-07-13T12:29:16;95403.41;;;24.24;39.41
79686;BME280;69153;47.918;11.428;2023-07-13T12:31:44;95399.59;;;23.97;39.95
79686;BME280;69153;47.918;11.428;2023-07-13T12:34:15;95410.28;;;23.50;40.89
79686;BME280;69153;47.918;11.428;2023-07-13T12:37:09;95400.91;;;23.73;41.32
79686;BME280;69153;47.918;11.428;2023-07-13T12:39:44;95391.06;;;23.76;42.10
79686;BME280;69153;47.918;11.428;2023-07-13T12:44:45;95389.56;;;24.33;39.39
79686;BME280;69153;47.918;11.428;2023-07-13T12:47:13;95394.72;;;24.72;38.71
79686;BME280;69153;47.918;11.428;2023-07-13T12:49:43;95391.38;;;24.90;37.16
79686;BME280;69153;47.918;11.428;2023-07-13T12:52:21;95391.88;;;24.88;35.24
79686;BME280;69153;47.918;11.428;2023-07-13T12:54:58;95385.09;;;25.06;36.70
79686;BME280;69153;47.918;11.428;2023-07-13T12:57:25;95381.25;;;25.20;37.16
79686;BME280;69153;47.918;11.428;2023-07-13T12:59:53;95370.25;;;25.37;35.92
79686;BME280;69153;47.918;11.428;2023-07-13T13:04:50;95378.88;;;25.36;36.96
79686;BME280;69153;47.918;11.428;2023-07-13T13:07:15;95378.63;;;25.15;34.71
79686;BME280;69153;47.918;11.428;2023-07-13T13:09:41;95379.19;;;24.72;35.14
79686;BME280;69153;47.918;11.428;2023-07-13T13:12:06;95382.19;;;24.33;37.37
79686;BME280;69153;47.918;11.428;2023-07-13T13:14:32;95380.06;;;24.56;38.78
79686;BME280;69153;47.918;11.428;2023-07-13T13:16:58;95386.44;;;24.94;37.97
79686;BME280;69153;47.918;11.428;2023-07-13T13:19:28;95384.47;;;25.19;37.38
79686;BME280;69153;47.918;11.428;2023-07-13T13:21:55;95388.84;;;25.52;36.80
79686;BME280;69153;47.918;11.428;2023-07-13T13:24:25;95380.91;;;25.78;33.74
79686;BME280;69153;47.918;11.428;2023-07-13T13:26:53;95380.81;;;25.65;35.97
79686;BME280;69153;47.918;11.428;2023-07-13T13:29:21;95381.19;;;25.75;36.54
79686;BME280;69153;47.918;11.428;2023-07-13T13:31:49;95383.22;;;25.93;35.52
79686;BME280;69153;47.918;11.428;2023-07-13T13:34:16;95391.72;;;26.03;34.70